Charter Quote
Worldwide +1-877-727-2538 Call
Select Language Lang
SAFETY RELIABILITY EXPERIENCE

Istrana Airport (LIPS) - Jet Charter Services

AIRPORT INFORMATION
ICAOLIPS
LOCATIONTreviso, Italy
FACILITY TYPEAIRPORT
Runway Length (ft) Width (ft) Surface Type Elevation (ft)
26/08 9816 105 ASP 137.90164

At Paramount Business Jets you can hire chartered private jets to and from Istrana Airport with as little as 4 hours of notice. All flights booked via Paramount Business Jets are operated by certified direct air carriers that meet and exceed the FAA part 135 and 121 protocol or a foreign equivalent safety authority. Furthermore, Paramount Business Jets subscribes to ARGUS for their third party safety checks of operators, aircraft, and crews prior each and every flight to and from Istrana Airport and worldwide.

  • Quote a trip using Istrana Airport or call us 24/7 - 365 days a year at +1-877-727-2538.
Questions? Call +1-877-727-2538

METAR Weather Data at Istrana Airport, LIPS

STATIONLIPS
OBSERVEDMon Apr 22, 03:55 UTC
NOWMon Apr 22, 05:02 UTC
AGE67 min ago
WINDNNE at 6 mph
VISIBILITYgreater than 7 miles
CLOUDSclear skies
TEMP48°F (9°C)
WIND CHILL45°F (7°C)
DEWPT48°F (9°C)
HUMIDITY100%
BAROMETER1018 hPa (30.06 in Hg)
METARLIPS 220355Z 02005KT CAVOK 09/09 Q1018

Call us on +1-877-727-2538 (24 Hours) to Hire a Private Jet or Get a Quick Quote.

Find Airports Near any Location

Processing
...